Time;durP1;ratioP1;P1;durP2;ratioP2;P2;SDS_P1;SDS_P2;PMS_P1;PMS_P2;Temp;Humidity;BMP_temperature;BMP_pressure;BME280_temperature;BME280_humidity;BME280_pressure;Samples;Min_cycle;Max_cycle;Signal;HPM_P1;HPM_P2
2021/12/22 00:00:16;;;;;;;10.48;6.57;;;;;;;4.71;46.33;102226.63;5027281;28;20108;-75
2021/12/22 00:02:48;;;;;;;11.32;6.78;;;;;;;4.69;46.36;102232.97;5027881;28;20073;-75
2021/12/22 00:05:27;;;;;;;10.85;6.60;;;;;;;4.69;46.87;102231.16;5027660;28;20480;-75
2021/12/22 00:07:54;;;;;;;11.95;6.57;;;;;;;4.66;46.41;102231.22;5025603;28;20081;-75
2021/12/22 00:10:22;;;;;;;11.85;6.55;;;;;;;4.68;46.29;102231.19;5044039;28;20115;-75
2021/12/22 00:12:49;;;;;;;10.35;6.38;;;;;;;4.66;46.15;102233.91;5028184;28;20053;-75
2021/12/22 00:15:16;;;;;;;8.68;5.93;;;;;;;4.66;46.53;102233.91;5032392;28;20053;-75
2021/12/22 00:17:43;;;;;;;10.90;6.30;;;;;;;4.66;46.72;102230.34;5028436;28;20100;-75
2021/12/22 00:20:12;;;;;;;9.23;5.85;;;;;;;4.66;46.56;102230.34;5028074;28;20050;-75
2021/12/22 00:22:38;;;;;;;9.82;6.20;;;;;;;4.65;46.58;102233.94;5027575;28;20065;-75
2021/12/22 00:25:05;;;;;;;8.15;5.70;;;;;;;4.66;46.71;102235.72;5028588;28;20311;-75
2021/12/22 00:27:32;;;;;;;9.00;6.00;;;;;;;4.65;46.45;102232.13;5043098;28;20065;-75
2021/12/22 00:29:59;;;;;;;9.65;6.40;;;;;;;4.64;46.70;102234.84;5019728;28;20081;-75
2021/12/22 00:32:28;;;;;;;11.73;6.43;;;;;;;4.63;46.29;102228.59;5026182;28;20119;-75
2021/12/22 00:34:56;;;;;;;12.13;6.38;;;;;;;4.63;46.17;102233.06;5023881;28;20216;-75
2021/12/22 00:37:25;;;;;;;8.57;6.00;;;;;;;4.65;46.73;102228.56;5025140;28;20060;-75
2021/12/22 00:39:54;;;;;;;9.93;5.93;;;;;;;4.63;46.58;102219.63;5027974;28;20080;-75
2021/12/22 00:42:22;;;;;;;8.82;5.47;;;;;;;4.62;46.47;102220.53;5027521;28;20048;-75
2021/12/22 00:44:51;;;;;;;8.57;5.40;;;;;;;4.61;46.38;102222.38;5034242;28;20049;-75
2021/12/22 00:47:19;;;;;;;8.82;5.65;;;;;;;4.60;46.48;102220.59;5028129;28;20046;-75
2021/12/22 00:49:46;;;;;;;10.02;5.20;;;;;;;4.59;46.45;102214.34;5027653;28;20499;-75
2021/12/22 00:52:13;;;;;;;8.60;5.65;;;;;;;4.59;46.65;102225.09;5026966;28;20054;-75
2021/12/22 00:54:40;;;;;;;9.40;5.15;;;;;;;4.58;46.39;102217.03;5029070;28;20132;-75
2021/12/22 00:57:09;;;;;;;7.53;5.30;;;;;;;4.58;46.34;102214.34;5031974;28;20149;-76
2021/12/22 00:59:36;;;;;;;9.60;5.35;;;;;;;4.57;46.42;102210.78;5031297;28;20092;-75
2021/12/22 01:02:06;;;;;;;7.68;5.07;;;;;;;4.58;46.52;102212.56;5031687;28;20124;-75
2021/12/22 01:04:33;;;;;;;8.02;5.13;;;;;;;4.57;46.49;102210.78;5032226;28;20057;-75
2021/12/22 01:07:00;;;;;;;9.70;5.50;;;;;;;4.57;46.58;102216.16;5031205;28;20072;-75
2021/12/22 01:09:27;;;;;;;9.02;5.30;;;;;;;4.56;46.50;102213.50;5012852;28;20045;-75
2021/12/22 01:11:53;;;;;;;7.30;4.82;;;;;;;4.57;46.63;102212.56;5031745;28;20413;-75
2021/12/22 01:14:21;;;;;;;7.35;4.65;;;;;;;4.56;46.67;102214.38;5049097;28;20572;-75
2021/12/22 01:16:51;;;;;;;8.45;5.07;;;;;;;4.56;46.61;102216.19;5038829;28;20073;-75
2021/12/22 01:19:26;;;;;;;7.40;4.47;;;;;;;4.55;46.65;102215.28;5031125;28;20130;-75
2021/12/22 01:22:02;;;;;;;7.85;4.07;;;;;;;4.53;46.58;102213.53;5031400;28;20591;-75
2021/12/22 01:24:32;;;;;;;6.75;3.85;;;;;;;4.52;46.58;102220.75;5031603;28;20453;-75
2021/12/22 01:27:07;;;;;;;6.78;4.25;;;;;;;4.51;46.35;102215.41;5030965;28;20098;-75
2021/12/22 01:29:37;;;;;;;7.38;4.00;;;;;;;4.51;46.48;102224.34;5031182;28;20085;-75
2021/12/22 01:32:06;;;;;;;7.00;4.03;;;;;;;4.50;46.28;102224.38;5031425;28;20079;-75
2021/12/22 01:34:32;;;;;;;8.27;4.28;;;;;;;4.48;46.53;102227.09;5027725;28;20073;-75
2021/12/22 01:36:59;;;;;;;7.15;4.20;;;;;;;4.48;46.72;102229.78;5012356;28;20045;-75
2021/12/22 01:39:26;;;;;;;7.00;4.40;;;;;;;4.48;46.70;102223.53;5030796;28;20072;-75
2021/12/22 01:41:53;;;;;;;7.40;4.25;;;;;;;4.47;46.64;102229.81;5031328;28;20065;-75
2021/12/22 01:44:31;;;;;;;9.07;4.47;;;;;;;4.49;46.46;102239.63;5033106;28;20080;-75
2021/12/22 01:49:50;;;;;;;8.35;4.30;;;;;;;4.45;46.49;102237.91;5030805;28;20077;-75
2021/12/22 01:52:18;;;;;;;;;;;;;;;4.27;47.20;102232.91;5031288;28;20054;-75
2021/12/22 01:54:47;;;;;;;6.30;3.83;;;;;;;4.39;46.56;102235.34;5030226;28;19968;-75
2021/12/22 01:57:16;;;;;;;6.43;3.80;;;;;;;4.41;46.66;102230.81;5030257;28;20095;-75
2021/12/22 01:59:46;;;;;;;10.10;5.15;;;;;;;4.41;46.71;102235.31;5030826;28;20506;-75
2021/12/22 02:02:15;;;;;;;7.75;4.18;;;;;;;4.39;46.28;102237.13;5014723;28;20389;-76
2021/12/22 02:04:41;;;;;;;7.00;4.22;;;;;;;4.37;46.33;102247.03;5031263;28;20492;-75
2021/12/22 02:07:10;;;;;;;6.10;4.20;;;;;;;4.36;46.54;102245.28;5028955;28;20382;-75
2021/12/22 02:12:10;;;;;;;6.78;4.13;;;;;;;4.32;46.52;102243.56;5030151;28;20134;-76
2021/12/22 02:14:36;;;;;;;7.55;4.22;;;;;;;4.31;46.76;102231.03;5023459;28;20546;-75
2021/12/22 02:17:07;;;;;;;7.78;4.28;;;;;;;4.30;46.60;102238.19;5035589;28;20069;-75
2021/12/22 02:19:47;;;;;;;7.40;4.18;;;;;;;4.31;46.78;102237.28;5030316;28;20045;-75
2021/12/22 02:22:17;;;;;;;6.75;3.90;;;;;;;4.27;46.55;102232.00;5029407;28;20045;-75
2021/12/22 02:24:50;;;;;;;7.00;4.10;;;;;;;4.26;46.72;102223.06;5031479;28;20313;-75
2021/12/22 02:27:29;;;;;;;6.82;3.65;;;;;;;4.24;47.04;102226.69;5029493;28;20076;-75
2021/12/22 02:30:00;;;;;;;7.03;4.32;;;;;;;4.21;46.48;102227.63;5030406;28;20073;-75
2021/12/22 02:35:02;;;;;;;7.13;4.03;;;;;;;4.19;46.62;102234.84;5012436;28;20096;-75
2021/12/22 02:37:30;;;;;;;5.97;3.90;;;;;;;4.16;46.72;102233.09;5023135;28;20068;-75
2021/12/22 02:40:00;;;;;;;9.25;4.43;;;;;;;4.18;46.93;102230.38;5026028;28;20377;-75
2021/12/22 02:42:31;;;;;;;7.75;3.72;;;;;;;4.18;46.73;102222.31;5028887;28;20496;-75
2021/12/22 02:45:31;;;;;;;9.43;4.32;;;;;;;4.17;46.96;102212.47;5032979;28;20076;-75
2021/12/22 02:47:58;;;;;;;5.93;3.75;;;;;;;4.16;46.96;102214.28;4986123;28;20053;-75
2021/12/22 02:50:25;;;;;;;6.50;4.22;;;;;;;4.17;47.05;102213.38;5030641;28;20057;-75
2021/12/22 02:55:26;;;;;;;6.25;3.90;;;;;;;4.19;47.08;102210.66;5030834;28;20107;-75
2021/12/22 02:57:55;;;;;;;6.18;3.30;;;;;;;4.19;46.75;102210.66;5027839;28;20552;-75
2021/12/22 03:03:04;;;;;;;6.82;3.40;;;;;;;4.18;47.03;102208.88;5028819;28;20069;-75
2021/12/22 03:05:31;;;;;;;5.78;3.60;;;;;;;4.14;46.81;102205.34;5024708;28;20332;-75
2021/12/22 03:07:57;;;;;;;6.45;3.58;;;;;;;4.17;46.81;102209.78;5032116;28;20076;-75
2021/12/22 03:10:24;;;;;;;7.95;3.60;;;;;;;4.16;46.70;102211.59;5029426;28;20088;-75
2021/12/22 03:12:53;;;;;;;7.85;3.95;;;;;;;4.15;46.68;102215.19;5027005;28;20115;-75
2021/12/22 03:15:21;;;;;;;6.70;3.70;;;;;;;4.15;46.68;102214.28;5029838;28;20077;-75
2021/12/22 03:17:51;;;;;;;6.20;3.85;;;;;;;4.13;46.91;102213.44;5040175;28;20068;-75
2021/12/22 03:20:18;;;;;;;7.53;3.60;;;;;;;4.12;46.79;102209.84;5029561;28;20056;-76
2021/12/22 03:22:46;;;;;;;6.47;3.58;;;;;;;4.12;46.98;102208.97;5028223;28;20065;-75
2021/12/22 03:25:16;;;;;;;7.32;4.07;;;;;;;4.12;47.08;102198.22;5029535;28;20057;-75
2021/12/22 03:27:47;;;;;;;7.40;3.42;;;;;;;4.13;46.74;102200.00;5028405;28;20049;-75
2021/12/22 03:30:17;;;;;;;4.97;3.35;;;;;;;4.12;47.02;102199.09;4998557;28;20054;-75
2021/12/22 03:32:43;;;;;;;5.90;3.15;;;;;;;4.10;47.03;102203.66;5023542;28;20095;-75
2021/12/22 03:35:21;;;;;;;7.32;3.53;;;;;;;4.11;46.91;102207.22;5029304;28;20134;-75
2021/12/22 03:37:54;;;;;;;6.70;3.53;;;;;;;4.11;46.77;102197.38;5023579;28;20084;-75
2021/12/22 03:40:22;;;;;;;6.25;3.22;;;;;;;4.11;47.21;102199.16;5027005;28;20449;-75
2021/12/22 03:42:49;;;;;;;5.65;3.00;;;;;;;4.10;46.88;102194.69;5026920;28;20077;-75
2021/12/22 03:45:16;;;;;;;6.68;3.65;;;;;;;4.09;46.92;102199.19;5029644;28;20418;-75
2021/12/22 03:47:44;;;;;;;5.18;3.10;;;;;;;4.09;46.60;102199.19;5027889;28;20496;-75
2021/12/22 03:50:11;;;;;;;5.07;3.03;;;;;;;4.08;46.77;102197.41;5028631;28;20085;-75
2021/12/22 03:52:38;;;;;;;5.72;2.97;;;;;;;4.08;46.65;102204.59;5023554;28;20046;-75
2021/12/22 03:55:06;;;;;;;5.20;3.05;;;;;;;4.09;46.89;102201.00;5029506;28;20085;-75
2021/12/22 03:57:33;;;;;;;5.25;3.20;;;;;;;4.06;47.02;102193.84;5023094;28;20099;-75
2021/12/22 04:00:01;;;;;;;6.05;3.20;;;;;;;4.06;46.74;102199.22;5028114;28;20452;-75
2021/12/22 04:02:29;;;;;;;5.95;3.40;;;;;;;4.05;47.02;102197.44;5028158;28;20485;-75
2021/12/22 04:04:56;;;;;;;5.40;2.97;;;;;;;4.05;47.00;102193.88;5028769;28;20450;-75
2021/12/22 04:07:23;;;;;;;5.65;3.40;;;;;;;4.04;46.89;102193.00;5026183;28;20103;-75
2021/12/22 04:09:49;;;;;;;6.80;3.30;;;;;;;4.03;47.32;102196.63;5028159;28;20053;-75
2021/12/22 04:12:16;;;;;;;4.97;3.10;;;;;;;4.03;46.98;102207.38;5026992;28;20101;-76
2021/12/22 04:14:42;;;;;;;5.68;3.10;;;;;;;4.02;46.90;102215.47;5029717;28;20053;-75
2021/12/22 04:17:09;;;;;;;6.20;3.30;;;;;;;4.01;46.67;102217.25;5027609;28;20501;-76
2021/12/22 04:19:38;;;;;;;6.00;3.13;;;;;;;3.99;46.97;102216.38;5027777;28;20073;-76
2021/12/22 04:22:06;;;;;;;6.15;3.03;;;;;;;4.00;47.14;102225.34;5042868;28;20084;-76
2021/12/22 04:24:33;;;;;;;5.03;2.95;;;;;;;3.98;46.97;102211.91;5028897;28;20046;-76
2021/12/22 04:27:00;;;;;;;5.68;3.40;;;;;;;3.97;46.88;102225.38;5010200;28;20463;-76
2021/12/22 04:29:26;;;;;;;5.97;2.90;;;;;;;3.96;47.20;102224.50;5028760;28;20072;-76
2021/12/22 04:31:53;;;;;;;5.00;3.05;;;;;;;3.96;47.14;102232.56;5013445;28;20765;-76
2021/12/22 04:34:19;;;;;;;6.22;3.15;;;;;;;3.96;46.97;102221.81;5032707;28;20037;-76
2021/12/22 04:36:46;;;;;;;6.03;3.40;;;;;;;3.97;47.15;102230.75;5031927;28;20099;-76
2021/12/22 04:39:12;;;;;;;4.78;2.70;;;;;;;3.96;47.06;102227.19;5031221;28;20479;-76
2021/12/22 04:41:39;;;;;;;5.55;3.20;;;;;;;3.97;47.13;102234.31;5036461;28;20095;-76
2021/12/22 04:44:06;;;;;;;5.07;3.10;;;;;;;3.97;46.97;102238.81;5032117;28;20049;-76
2021/12/22 04:46:33;;;;;;;5.13;3.03;;;;;;;3.96;46.92;102232.56;5033352;28;20041;-76
2021/12/22 04:49:00;;;;;;;5.70;3.17;;;;;;;3.98;47.04;102236.09;5014855;28;20049;-76
2021/12/22 04:51:29;;;;;;;5.47;2.83;;;;;;;3.96;47.10;102232.56;5046858;28;20049;-76
2021/12/22 04:54:17;;;;;;;6.65;3.10;;;;;;;3.97;47.18;102231.63;5031948;28;20052;-76
2021/12/22 04:56:44;;;;;;;5.97;2.78;;;;;;;3.97;46.97;102234.31;5031200;28;20096;-76
2021/12/22 04:59:12;;;;;;;5.25;2.97;;;;;;;3.97;46.81;102234.31;5031856;28;20073;-76
2021/12/22 05:01:38;;;;;;;7.20;3.38;;;;;;;3.95;46.73;102220.06;5007027;28;20049;-76
2021/12/22 05:04:05;;;;;;;6.72;3.47;;;;;;;3.95;47.19;102222.75;5031779;28;20045;-76
2021/12/22 05:06:34;;;;;;;7.60;3.38;;;;;;;3.95;46.70;102216.47;5030712;28;20080;-76
2021/12/22 05:09:02;;;;;;;4.97;3.17;;;;;;;3.95;47.10;102216.47;5047952;28;20061;-76
2021/12/22 05:11:29;;;;;;;4.82;2.63;;;;;;;3.94;46.94;102215.59;5032510;28;20065;-76
2021/12/22 05:13:55;;;;;;;7.32;3.60;;;;;;;3.94;47.29;102212.03;5031179;28;20445;-76
2021/12/22 05:16:22;;;;;;;5.53;3.25;;;;;;;3.93;46.80;102208.44;5034517;28;20500;-76
2021/12/22 05:18:53;;;;;;;7.97;3.95;;;;;;;3.92;46.96;102211.16;5031500;28;20056;-76
2021/12/22 05:21:21;;;;;;;6.90;3.25;;;;;;;3.91;46.98;102214.75;5030507;28;20451;-76
2021/12/22 05:23:49;;;;;;;5.80;3.38;;;;;;;3.90;46.92;102205.81;5031742;28;20045;-76
2021/12/22 05:26:16;;;;;;;6.38;3.10;;;;;;;3.90;46.79;102212.97;5030265;28;20390;-76
2021/12/22 05:28:43;;;;;;;6.53;3.65;;;;;;;3.88;46.83;102207.63;5029866;28;20045;-76
2021/12/22 05:31:09;;;;;;;7.95;3.47;;;;;;;3.88;46.75;102206.72;5029102;28;20081;-76
2021/12/22 05:33:36;;;;;;;7.72;3.40;;;;;;;3.87;46.80;102207.66;5030229;28;20037;-76
2021/12/22 05:36:04;;;;;;;9.60;3.95;;;;;;;3.86;46.87;102209.47;5035962;28;20092;-76
2021/12/22 05:38:30;;;;;;;4.97;3.30;;;;;;;3.85;46.94;102207.69;5013034;28;20072;-76
2021/12/22 05:40:57;;;;;;;7.20;3.40;;;;;;;3.85;46.80;102204.13;5029402;28;20120;-76
2021/12/22 05:43:23;;;;;;;6.85;3.40;;;;;;;3.82;46.99;102207.72;5030688;28;21628;-76
2021/12/22 05:45:50;;;;;;;6.85;3.38;;;;;;;3.82;47.09;102207.72;5034627;28;20103;-76
2021/12/22 05:48:20;;;;;;;5.72;3.22;;;;;;;3.81;46.82;102208.63;5031074;28;20045;-76
2021/12/22 05:50:50;;;;;;;7.03;3.80;;;;;;;3.81;47.14;102208.63;5029955;28;20057;-76
2021/12/22 05:53:17;;;;;;;6.50;3.63;;;;;;;3.80;46.96;102210.44;5029527;28;20408;-76
2021/12/22 05:55:44;;;;;;;6.93;3.58;;;;;;;3.80;47.16;102207.75;5030151;28;20128;-77
2021/12/22 05:58:11;;;;;;;7.32;3.22;;;;;;;3.79;47.00;102197.91;5030424;28;20045;-76
2021/12/22 06:00:37;;;;;;;6.18;3.40;;;;;;;3.79;47.06;102194.34;5030031;28;20176;-77
2021/12/22 06:03:04;;;;;;;6.22;3.40;;;;;;;3.79;47.19;102186.28;5029591;28;20045;-76
2021/12/22 06:05:31;;;;;;;6.07;3.15;;;;;;;3.79;47.12;102188.97;5030884;28;20050;-76
2021/12/22 06:07:58;;;;;;;6.70;2.70;;;;;;;3.79;47.42;102183.59;5029311;28;20504;-76
2021/12/22 06:10:24;;;;;;;6.15;3.60;;;;;;;3.78;47.26;102192.59;5013039;28;20473;-76
2021/12/22 06:12:51;;;;;;;6.15;3.08;;;;;;;3.77;47.03;102186.34;5023860;28;20057;-76
2021/12/22 06:15:17;;;;;;;5.75;3.40;;;;;;;3.78;47.07;102188.13;5039663;28;20049;-76
2021/12/22 06:17:46;;;;;;;6.30;3.30;;;;;;;3.77;46.95;102183.66;5034876;28;20277;-76
2021/12/22 06:20:12;;;;;;;7.75;3.30;;;;;;;3.76;47.11;102187.25;5030413;28;20564;-76
2021/12/22 06:22:39;;;;;;;7.75;3.17;;;;;;;3.77;47.09;102191.72;5018883;28;20075;-76
2021/12/22 06:25:06;;;;;;;7.22;3.22;;;;;;;3.78;47.20;102181.84;5029393;28;20104;-76
2021/12/22 06:27:33;;;;;;;6.82;3.42;;;;;;;3.78;46.91;102181.84;5029212;28;20064;-76
2021/12/22 06:29:59;;;;;;;5.97;2.90;;;;;;;3.77;46.89;102183.66;5022829;28;20088;-76
2021/12/22 06:32:26;;;;;;;5.47;2.88;;;;;;;3.78;46.95;102184.53;5015005;28;20431;-76
2021/12/22 06:34:53;;;;;;;7.40;3.33;;;;;;;3.78;47.20;102190.81;5030829;28;20075;-76
2021/12/22 06:37:19;;;;;;;4.90;2.80;;;;;;;3.76;47.21;102187.25;5010888;28;20037;-76
2021/12/22 06:39:46;;;;;;;7.25;3.38;;;;;;;3.75;47.14;102192.63;5027830;28;20053;-76
2021/12/22 06:42:13;;;;;;;5.38;3.00;;;;;;;3.73;47.21;102184.59;5045062;28;20045;-76
2021/12/22 06:44:39;;;;;;;4.32;2.80;;;;;;;3.73;46.98;102186.41;5035355;28;20095;-76
2021/12/22 06:47:07;;;;;;;5.55;3.08;;;;;;;3.72;47.41;102180.16;5028604;28;20063;-76
2021/12/22 06:49:34;;;;;;;6.68;2.95;;;;;;;3.72;47.18;102181.94;5028776;28;20049;-77
2021/12/22 06:52:00;;;;;;;6.90;3.20;;;;;;;3.70;47.19;102186.47;5027763;28;20505;-77
2021/12/22 06:54:27;;;;;;;5.15;3.22;;;;;;;3.70;47.09;102184.69;5029046;28;20048;-78
2021/12/22 06:56:54;;;;;;;5.75;2.97;;;;;;;3.68;47.29;102183.81;5028313;28;20079;-78
2021/12/22 06:59:20;;;;;;;5.68;2.75;;;;;;;3.68;47.60;102185.59;5027910;28;20045;-77
2021/12/22 07:01:47;;;;;;;7.32;3.05;;;;;;;3.66;47.27;102180.25;5029215;28;20103;-77
2021/12/22 07:04:14;;;;;;;6.75;3.55;;;;;;;3.66;47.35;102188.31;5029297;28;20496;-78
2021/12/22 07:06:41;;;;;;;6.65;3.05;;;;;;;3.68;47.64;102185.59;5028150;28;20069;-78
2021/12/22 07:09:07;;;;;;;5.70;3.00;;;;;;;3.70;47.84;102181.09;5011847;28;20083;-77
2021/12/22 07:11:36;;;;;;;7.07;3.45;;;;;;;3.72;47.60;102184.63;5029017;28;20057;-77
2021/12/22 07:14:06;;;;;;;6.90;2.97;;;;;;;3.72;47.63;102184.63;5030261;28;20049;-77
2021/12/22 07:16:34;;;;;;;5.65;3.10;;;;;;;3.71;47.24;102173.00;5018691;28;20042;-78
2021/12/22 07:19:01;;;;;;;6.97;3.30;;;;;;;3.72;47.32;102174.78;5029677;28;20050;-78
2021/12/22 07:21:28;;;;;;;6.38;3.17;;;;;;;3.71;47.63;102178.38;5029200;28;20050;-78
2021/12/22 07:23:55;;;;;;;7.15;3.53;;;;;;;3.72;47.71;102176.56;5040519;28;20099;-77
2021/12/22 07:26:22;;;;;;;6.18;3.10;;;;;;;3.72;47.53;102179.25;5029318;28;20049;-77
2021/12/22 07:28:49;;;;;;;6.10;3.42;;;;;;;3.74;47.48;102181.00;5026350;28;20057;-78
2021/12/22 07:31:17;;;;;;;6.75;3.42;;;;;;;3.73;47.28;102191.78;5030307;28;20615;-79
2021/12/22 07:33:52;;;;;;;4.43;3.08;;;;;;;3.74;47.62;102181.00;5028596;28;20124;-78
2021/12/22 07:36:19;;;;;;;7.03;3.22;;;;;;;3.72;47.63;102181.94;5027193;28;20404;-77
2021/12/22 07:38:57;;;;;;;5.35;3.28;;;;;;;3.75;47.59;102171.16;5033835;28;20087;-78
2021/12/22 07:41:25;;;;;;;5.85;3.13;;;;;;;3.73;47.67;102183.72;5017444;28;20124;-78
2021/12/22 07:43:51;;;;;;;6.40;3.55;;;;;;;3.72;47.60;102181.94;5033864;28;20053;-78
2021/12/22 07:46:18;;;;;;;5.93;2.90;;;;;;;3.72;47.64;102180.16;5045628;28;20131;-78
2021/12/22 07:48:46;;;;;;;5.85;3.25;;;;;;;3.73;47.73;102172.97;5029009;28;20045;-78
2021/12/22 07:51:12;;;;;;;7.63;3.53;;;;;;;3.71;47.45;102173.00;5028144;28;20046;-78
2021/12/22 07:53:39;;;;;;;5.88;3.67;;;;;;;3.70;47.24;102176.63;5027882;28;20049;-78
2021/12/22 07:56:06;;;;;;;5.82;3.13;;;;;;;3.69;47.70;102177.53;5028941;28;20128;-79
2021/12/22 07:58:33;;;;;;;7.25;3.50;;;;;;;3.69;47.60;102174.84;5027821;28;20049;-78
2021/12/22 08:01:00;;;;;;;6.10;3.35;;;;;;;3.70;47.70;102173.03;5028315;28;20041;-78
2021/12/22 08:03:27;;;;;;;5.05;3.03;;;;;;;3.70;47.37;102182.00;5027844;28;20045;-79
2021/12/22 08:06:09;;;;;;;5.43;3.03;;;;;;;3.69;47.40;102179.31;5028073;28;20056;-78
2021/12/22 08:08:36;;;;;;;5.72;3.13;;;;;;;3.71;47.55;102190.91;5038945;28;20046;-78
2021/12/22 08:11:02;;;;;;;5.68;3.55;;;;;;;3.73;47.62;102189.09;5027537;28;20467;-78
2021/12/22 08:13:29;;;;;;;6.00;2.90;;;;;;;3.73;47.64;102189.09;5028846;28;20045;-77
2021/12/22 08:15:56;;;;;;;5.30;3.28;;;;;;;3.74;47.92;102189.06;5025553;28;20079;-77
2021/12/22 08:18:24;;;;;;;6.13;3.35;;;;;;;3.74;47.94;102194.44;5029870;28;20049;-77
2021/12/22 08:20:51;;;;;;;6.45;3.53;;;;;;;3.77;48.01;102186.34;5028059;28;20053;-77
2021/12/22 08:23:18;;;;;;;6.28;3.40;;;;;;;3.79;47.74;102191.66;5017986;28;20070;-78
2021/12/22 08:25:50;;;;;;;7.50;3.40;;;;;;;3.82;48.03;102191.63;5028950;28;20049;-77
2021/12/22 08:28:18;;;;;;;6.82;3.65;;;;;;;3.81;47.87;102188.03;5027163;28;20045;-77
2021/12/22 08:30:45;;;;;;;6.38;3.65;;;;;;;3.81;47.96;102185.34;5026436;28;20085;-77
2021/12/22 08:33:21;;;;;;;5.88;3.70;;;;;;;3.85;47.93;102179.94;5031229;28;20049;-77
2021/12/22 08:38:50;;;;;;;6.00;3.55;;;;;;;3.88;48.05;102171.81;5024406;28;20449;-77
2021/12/22 08:41:25;;;;;;;7.75;3.78;;;;;;;3.90;48.00;102169.97;5027304;28;20317;-77
2021/12/22 08:43:54;;;;;;;6.70;3.80;;;;;;;3.90;47.79;102172.66;5028049;28;20041;-77
2021/12/22 08:46:21;;;;;;;8.00;4.05;;;;;;;3.90;47.74;102173.56;5035734;28;20041;-78
2021/12/22 08:48:48;;;;;;;7.65;3.60;;;;;;;3.90;47.99;102176.25;5027996;28;20305;-77
2021/12/22 08:51:15;;;;;;;6.65;3.95;;;;;;;3.92;47.88;102176.22;5027923;28;20042;-78
2021/12/22 08:53:42;;;;;;;8.70;4.80;;;;;;;3.92;47.59;102169.06;5026642;28;20131;-78
2021/12/22 08:56:09;;;;;;;7.70;4.55;;;;;;;3.93;48.07;102172.63;5010574;28;20045;-78
2021/12/22 08:58:36;;;;;;;7.95;4.13;;;;;;;3.93;47.62;102170.81;5017858;28;20112;-77
2021/12/22 09:01:04;;;;;;;8.13;4.82;;;;;;;3.94;47.83;102163.66;5031365;28;20042;-77
2021/12/22 09:03:32;;;;;;;8.57;4.38;;;;;;;3.95;47.80;102174.38;5016957;28;20509;-77
2021/12/22 09:06:00;;;;;;;8.23;4.38;;;;;;;3.96;47.84;102176.13;4991819;28;20492;-77
2021/12/22 09:08:26;;;;;;;8.02;4.47;;;;;;;3.98;48.11;102168.03;5022169;28;20042;-77
2021/12/22 09:10:54;;;;;;;7.90;4.10;;;;;;;4.01;47.97;102176.06;5027283;28;20053;-77
2021/12/22 09:13:21;;;;;;;7.38;4.35;;;;;;;4.03;47.86;102166.19;5027730;28;20081;-77
2021/12/22 09:15:48;;;;;;;6.25;3.85;;;;;;;4.05;48.10;102173.28;5036707;28;20496;-77
2021/12/22 09:18:17;;;;;;;5.75;3.90;;;;;;;4.07;47.89;102168.75;5028950;28;20069;-77
2021/12/22 09:20:43;;;;;;;5.60;3.55;;;;;;;4.10;47.93;102176.78;5030495;28;20092;-78
2021/12/22 09:23:10;;;;;;;6.45;4.20;;;;;;;4.13;48.19;102178.50;5031606;28;20119;-77
2021/12/22 09:25:37;;;;;;;6.10;3.90;;;;;;;4.17;47.92;102180.22;5032653;28;20049;-79
2021/12/22 09:28:06;;;;;;;6.57;4.40;;;;;;;4.20;48.12;102181.03;5031117;28;20404;-78
2021/12/22 09:30:36;;;;;;;6.53;3.90;;;;;;;4.25;48.06;102180.06;5045906;28;20053;-77
2021/12/22 09:33:04;;;;;;;7.47;4.43;;;;;;;4.29;48.23;102173.69;5031451;28;20069;-77
2021/12/22 09:35:31;;;;;;;7.93;4.93;;;;;;;4.32;48.13;102176.34;5030277;28;20083;-77
2021/12/22 09:37:58;;;;;;;6.43;4.40;;;;;;;4.34;48.45;102169.13;5013021;28;20476;-76
2021/12/22 09:40:25;;;;;;;7.88;4.72;;;;;;;4.37;48.23;102169.94;5030607;28;20086;-77
2021/12/22 09:42:52;;;;;;;7.32;4.38;;;;;;;4.41;48.13;102168.97;5016161;28;20148;-77
2021/12/22 09:45:22;;;;;;;7.97;4.47;;;;;;;4.42;48.39;102165.38;5056953;28;20048;-76
2021/12/22 09:48:22;;;;;;;7.07;4.15;;;;;;;4.49;47.92;102168.81;5016283;28;20049;-77
2021/12/22 09:50:55;;;;;;;7.28;4.60;;;;;;;4.49;47.96;102163.44;5044927;28;20118;-77
2021/12/22 09:53:31;;;;;;;8.63;4.78;;;;;;;4.51;48.14;102157.13;5015521;28;20448;-77
2021/12/22 09:55:59;;;;;;;7.85;4.47;;;;;;;4.55;48.19;102149.84;5032055;28;20041;-77
2021/12/22 09:58:26;;;;;;;7.15;4.15;;;;;;;4.60;48.20;102150.66;5038666;28;20083;-76
2021/12/22 10:00:54;;;;;;;7.95;4.53;;;;;;;4.64;47.96;102151.47;5022086;28;20108;-78
2021/12/22 10:03:23;;;;;;;7.00;5.03;;;;;;;4.67;48.02;102152.31;5028166;28;20041;-77
2021/12/22 10:05:50;;;;;;;9.35;5.65;;;;;;;4.71;47.93;102150.41;5028894;28;20054;-78
2021/12/22 10:08:20;;;;;;;8.15;5.60;;;;;;;4.76;48.10;102151.22;5031539;28;20099;-76
2021/12/22 10:10:55;;;;;;;8.63;5.32;;;;;;;4.83;47.89;102144.78;5030133;28;20107;-76
2021/12/22 10:13:26;;;;;;;8.23;4.90;;;;;;;4.86;47.95;102150.94;5027367;28;20451;-76
2021/12/22 10:15:53;;;;;;;7.45;5.30;;;;;;;4.90;48.16;102149.09;5022218;28;20053;-76
2021/12/22 10:18:23;;;;;;;10.88;5.55;;;;;;;4.94;48.05;102146.28;5023135;28;20128;-76
2021/12/22 10:20:54;;;;;;;9.60;6.22;;;;;;;5.00;47.83;102139.00;5026016;28;20077;-77
2021/12/22 10:23:28;;;;;;;7.82;4.97;;;;;;;5.03;47.90;102147.88;5026859;28;20041;-76
2021/12/22 10:25:56;;;;;;;8.38;5.53;;;;;;;5.07;47.84;102143.31;5029230;28;20056;-76
2021/12/22 10:28:25;;;;;;;7.60;4.70;;;;;;;5.10;47.78;102138.75;5028856;28;20045;-76
2021/12/22 10:31:01;;;;;;;8.80;5.15;;;;;;;5.17;47.81;102134.09;5029570;28;20053;-77
2021/12/22 10:33:30;;;;;;;8.60;5.53;;;;;;;5.18;48.03;102144.84;5030793;28;20049;-77
2021/12/22 10:35:59;;;;;;;7.55;5.28;;;;;;;5.25;47.60;102137.50;5029615;28;20128;-76
2021/12/22 10:38:29;;;;;;;7.93;4.80;;;;;;;5.28;47.49;102140.97;5026930;28;20065;-76
2021/12/22 10:41:07;;;;;;;8.77;5.40;;;;;;;5.33;47.55;102128.31;5027738;28;20499;-76
2021/12/22 10:43:41;;;;;;;9.02;5.57;;;;;;;5.36;47.51;102136.28;5029748;28;20041;-77
2021/12/22 10:46:14;;;;;;;8.25;5.38;;;;;;;5.40;47.64;102130.84;5019563;28;20094;-77
2021/12/22 10:51:31;;;;;;;8.23;5.25;;;;;;;5.47;47.60;102117.19;5021474;28;20049;-76
2021/12/22 10:54:00;;;;;;;11.20;5.32;;;;;;;5.53;47.70;102117.00;5030422;28;20045;-77
2021/12/22 10:56:33;;;;;;;9.25;5.10;;;;;;;5.59;47.16;102110.59;5030667;28;20042;-76
2021/12/22 10:59:07;;;;;;;9.80;5.82;;;;;;;5.60;47.40;102113.22;5030181;28;20045;-76
2021/12/22 11:01:41;;;;;;;7.50;4.95;;;;;;;5.65;47.00;102113.13;5027741;28;20457;-76
2021/12/22 11:04:15;;;;;;;9.15;5.82;;;;;;;5.68;46.96;102102.28;5029837;28;20041;-76
2021/12/22 11:06:42;;;;;;;8.00;4.85;;;;;;;5.69;47.33;102098.63;5029730;28;20398;-76
2021/12/22 11:09:15;;;;;;;8.43;4.97;;;;;;;5.74;47.02;102102.09;5029577;28;20049;-76
2021/12/22 11:11:49;;;;;;;9.10;5.45;;;;;;;5.77;46.88;102101.13;5029177;28;20095;-76
2021/12/22 11:14:24;;;;;;;10.30;5.93;;;;;;;5.81;47.01;102092.94;5013260;28;20041;-76
2021/12/22 11:16:57;;;;;;;9.18;5.28;;;;;;;5.83;46.64;102096.47;5036430;28;20104;-76
2021/12/22 11:19:28;;;;;;;9.35;5.30;;;;;;;5.83;46.75;102096.47;5044807;28;20317;-76
2021/12/22 11:22:06;;;;;;;9.48;5.65;;;;;;;5.86;46.71;102096.38;5029191;28;20046;-77
2021/12/22 11:24:37;;;;;;;8.88;5.10;;;;;;;5.88;47.18;102089.16;5029697;28;20084;-76
2021/12/22 11:27:07;;;;;;;8.82;5.10;;;;;;;5.89;46.75;102080.16;5024119;28;20136;-76
2021/12/22 11:29:36;;;;;;;8.45;5.20;;;;;;;5.94;46.94;102080.91;5011921;28;20485;-76
2021/12/22 11:32:05;;;;;;;7.97;5.05;;;;;;;5.96;46.69;102083.56;5028868;28;20076;-76
2021/12/22 11:34:35;;;;;;;6.75;4.45;;;;;;;5.99;46.55;102078.09;5029480;28;20084;-76
2021/12/22 11:37:09;;;;;;;8.23;5.28;;;;;;;6.03;46.28;102063.59;5012962;28;20049;-77
2021/12/22 11:39:36;;;;;;;8.57;5.10;;;;;;;6.02;46.68;102065.38;5028876;28;20716;-76
2021/12/22 11:42:07;;;;;;;7.90;5.05;;;;;;;6.09;46.68;102060.72;5028373;28;20053;-76
2021/12/22 11:44:36;;;;;;;7.63;5.03;;;;;;;6.09;46.74;102048.09;5033068;28;20049;-76
2021/12/22 11:47:08;;;;;;;8.43;5.18;;;;;;;6.12;46.29;102049.84;5037204;28;20053;-76
2021/12/22 11:49:34;;;;;;;10.25;6.05;;;;;;;6.11;46.61;102057.03;5029142;28;20115;-76
2021/12/22 11:52:31;;;;;;;9.98;5.88;;;;;;;6.15;45.59;102049.75;5018748;28;20049;-76
2021/12/22 11:55:10;;;;;;;8.35;5.28;;;;;;;6.18;45.60;102049.66;5000513;28;20049;-75
2021/12/22 11:57:38;;;;;;;7.40;4.90;;;;;;;6.18;46.34;102049.66;5028255;28;20053;-76
2021/12/22 12:00:26;;;;;;;8.10;4.80;;;;;;;6.21;45.39;102054.06;5027698;28;20049;-76